Time;durP1;ratioP1;P1;durP2;ratioP2;P2;SDS_P1;SDS_P2;PMS_P1;PMS_P2;Temp;Humidity;BMP_temperature;BMP_pressure;BME280_temperature;BME280_humidity;BME280_pressure;Samples;Min_cycle;Max_cycle;Signal;HPM_P1;HPM_P2
2023/12/16 00:02:08;;;;;;;19.87;15.07;;;6.10;99.90;;;;;;5032233;28;20440;-71
2023/12/16 00:04:53;;;;;;;23.15;14.30;;;6.20;99.90;;;;;;5036363;28;20498;-70
2023/12/16 00:07:39;;;;;;;19.90;13.93;;;6.30;99.90;;;;;;5036438;28;20205;-70
2023/12/16 00:10:25;;;;;;;19.88;13.35;;;6.30;99.90;;;;;;5031084;28;20226;-70
2023/12/16 00:13:10;;;;;;;23.27;13.93;;;6.30;99.90;;;;;;5031759;28;20289;-71
2023/12/16 00:15:56;;;;;;;25.35;16.75;;;6.30;99.90;;;;;;5031531;28;20452;-70
2023/12/16 00:18:43;;;;;;;25.10;16.50;;;6.30;99.90;;;;;;5031514;28;20248;-70
2023/12/16 00:21:29;;;;;;;27.70;17.23;;;6.30;99.90;;;;;;5027074;28;20206;-73
2023/12/16 00:24:15;;;;;;;55.50;16.65;;;6.30;99.90;;;;;;5031920;28;20465;-72
2023/12/16 00:27:00;;;;;;;24.50;16.55;;;6.20;99.90;;;;;;5032313;28;20202;-73
2023/12/16 00:29:46;;;;;;;24.70;15.60;;;6.20;99.90;;;;;;5031331;28;20231;-73
2023/12/16 00:32:32;;;;;;;24.23;16.50;;;6.30;99.90;;;;;;5029516;28;20204;-73
2023/12/16 00:35:19;;;;;;;29.57;16.80;;;6.30;99.90;;;;;;5038894;28;20779;-73
2023/12/16 00:38:04;;;;;;;29.30;17.67;;;6.30;99.90;;;;;;5027092;28;20503;-73
2023/12/16 00:40:50;;;;;;;28.92;17.48;;;6.30;99.90;;;;;;5039162;28;20880;-74
2023/12/16 00:43:36;;;;;;;24.43;17.20;;;6.40;99.90;;;;;;5026213;28;20235;-73
2023/12/16 00:46:21;;;;;;;37.97;17.00;;;6.40;99.90;;;;;;5044153;28;20471;-74
2023/12/16 00:49:07;;;;;;;24.38;17.60;;;6.30;99.90;;;;;;5053482;28;20452;-76
2023/12/16 00:51:55;;;;;;;27.88;18.50;;;6.20;99.90;;;;;;5051386;28;20213;-75
2023/12/16 00:54:41;;;;;;;35.00;19.67;;;6.30;99.90;;;;;;5034218;28;20202;-73
2023/12/16 00:57:26;;;;;;;24.80;17.85;;;6.20;99.90;;;;;;5042416;28;20291;-73
2023/12/16 01:00:13;;;;;;;23.73;16.07;;;6.10;99.90;;;;;;5045343;28;20229;-73
2023/12/16 01:02:59;;;;;;;28.67;18.90;;;6.10;99.90;;;;;;5046293;28;20440;-73
2023/12/16 01:05:44;;;;;;;25.63;16.60;;;6.00;99.90;;;;;;5035526;28;20427;-73
2023/12/16 01:08:31;;;;;;;25.10;16.23;;;6.10;99.90;;;;;;5035209;28;20941;-74
2023/12/16 01:11:17;;;;;;;27.77;18.33;;;6.10;99.90;;;;;;5028838;28;20333;-73
2023/12/16 01:14:03;;;;;;;21.47;16.50;;;6.10;99.90;;;;;;5036145;28;20438;-73
2023/12/16 01:16:48;;;;;;;30.60;18.38;;;6.00;99.90;;;;;;5042496;28;20432;-73
2023/12/16 01:19:34;;;;;;;25.00;16.30;;;6.00;99.90;;;;;;5029751;28;20235;-74
2023/12/16 01:22:19;;;;;;;20.23;15.43;;;6.00;99.90;;;;;;5040257;28;20234;-73
2023/12/16 01:25:07;;;;;;;20.75;16.50;;;6.00;99.90;;;;;;5036520;28;20349;-73
2023/12/16 01:27:53;;;;;;;21.03;15.90;;;6.00;99.90;;;;;;5029506;28;20212;-72
2023/12/16 01:30:39;;;;;;;23.70;15.45;;;6.10;99.90;;;;;;5030356;28;20429;-73
2023/12/16 01:33:24;;;;;;;21.23;16.30;;;6.10;99.90;;;;;;5039235;28;20688;-73
2023/12/16 01:36:10;;;;;;;21.23;13.67;;;6.00;99.90;;;;;;5044139;28;20435;-73
2023/12/16 01:38:56;;;;;;;19.98;14.85;;;6.00;99.90;;;;;;5034736;28;20453;-72
2023/12/16 01:41:43;;;;;;;19.27;13.20;;;5.90;99.90;;;;;;5030916;28;20284;-72
2023/12/16 01:44:29;;;;;;;17.20;13.43;;;5.80;99.90;;;;;;5031162;28;20487;-72
2023/12/16 01:47:15;;;;;;;17.52;13.80;;;5.80;99.90;;;;;;5045246;28;20280;-74
2023/12/16 01:50:01;;;;;;;17.05;12.85;;;5.90;99.90;;;;;;5045740;28;20717;-74
2023/12/16 01:52:47;;;;;;;18.93;13.50;;;5.80;99.90;;;;;;5031571;28;20614;-72
2023/12/16 01:55:33;;;;;;;26.52;14.15;;;5.70;99.90;;;;;;5035316;28;20421;-72
2023/12/16 01:58:20;;;;;;;16.95;13.05;;;5.70;99.90;;;;;;5034113;28;20209;-72
2023/12/16 02:01:06;;;;;;;18.60;12.98;;;5.70;99.90;;;;;;5043215;28;20210;-71
2023/12/16 02:03:52;;;;;;;18.92;14.07;;;5.80;99.90;;;;;;5032425;28;20226;-73
2023/12/16 02:06:39;;;;;;;17.08;13.52;;;5.70;99.90;;;;;;5030557;28;20579;-73
2023/12/16 02:09:25;;;;;;;17.53;13.47;;;5.70;99.90;;;;;;5035139;28;20333;-74
2023/12/16 02:12:11;;;;;;;15.67;12.63;;;5.80;99.90;;;;;;5043169;28;20523;-73
2023/12/16 02:14:58;;;;;;;19.17;13.02;;;5.70;99.90;;;;;;5036491;28;20404;-73
2023/12/16 02:17:43;;;;;;;16.30;12.02;;;5.80;99.90;;;;;;5039645;28;20202;-73
2023/12/16 02:20:29;;;;;;;15.10;12.60;;;5.90;99.90;;;;;;5038006;28;20581;-73
2023/12/16 02:23:17;;;;;;;16.10;13.35;;;5.80;99.90;;;;;;5049967;28;20433;-73
2023/12/16 02:26:03;;;;;;;17.45;12.02;;;5.90;99.90;;;;;;5042916;28;20682;-73
2023/12/16 02:28:49;;;;;;;17.90;13.05;;;5.80;99.90;;;;;;5042486;28;20367;-74
2023/12/16 02:31:34;;;;;;;21.08;12.82;;;5.80;99.90;;;;;;5036412;28;20346;-73
2023/12/16 02:34:23;;;;;;;14.23;12.30;;;5.80;99.90;;;;;;5041550;28;20201;-74
2023/12/16 02:37:08;;;;;;;19.27;13.18;;;5.90;99.90;;;;;;5041680;28;20206;-75
2023/12/16 02:39:56;;;;;;;15.15;11.85;;;5.90;99.90;;;;;;5042104;28;20284;-75
2023/12/16 02:42:41;;;;;;;14.27;12.25;;;5.90;99.90;;;;;;5030576;28;20326;-75
2023/12/16 02:45:27;;;;;;;15.45;12.50;;;5.80;99.90;;;;;;5034578;28;20717;-75
2023/12/16 02:48:12;;;;;;;15.57;12.35;;;5.80;99.90;;;;;;5049691;28;20204;-75
2023/12/16 02:50:58;;;;;;;24.02;14.38;;;5.70;99.90;;;;;;5041324;28;20212;-75
2023/12/16 02:53:44;;;;;;;16.40;12.00;;;5.70;99.90;;;;;;5043868;28;20202;-74
2023/12/16 02:56:31;;;;;;;18.98;13.80;;;5.80;99.90;;;;;;5028714;28;20326;-73
2023/12/16 02:59:16;;;;;;;15.45;12.90;;;5.80;99.90;;;;;;5043023;28;20226;-73
2023/12/16 03:02:02;;;;;;;16.10;12.60;;;5.80;99.90;;;;;;5036778;28;20330;-76
2023/12/16 03:04:47;;;;;;;17.42;12.02;;;5.80;99.90;;;;;;5035120;28;20221;-76
2023/12/16 03:07:33;;;;;;;17.83;11.45;;;5.90;99.90;;;;;;5029092;28;20265;-75
2023/12/16 03:10:19;;;;;;;14.80;11.43;;;5.80;99.90;;;;;;5039871;28;20354;-74
2023/12/16 03:13:06;;;;;;;17.27;11.52;;;5.90;99.90;;;;;;5037082;28;20708;-75
2023/12/16 03:15:51;;;;;;;20.85;12.45;;;5.90;99.90;;;;;;5031964;28;20628;-75
2023/12/16 03:18:37;;;;;;;16.45;11.90;;;5.90;99.90;;;;;;5036224;28;20361;-74
2023/12/16 03:21:23;;;;;;;14.98;12.15;;;5.90;99.90;;;;;;5040542;28;20229;-73
2023/12/16 03:24:08;;;;;;;15.70;11.40;;;5.80;99.90;;;;;;5043150;28;20270;-73
2023/12/16 03:26:54;;;;;;;14.88;11.57;;;5.80;99.90;;;;;;5034368;28;20221;-73
2023/12/16 03:29:41;;;;;;;15.65;12.25;;;5.80;99.90;;;;;;5030671;28;20288;-73
2023/12/16 03:32:26;;;;;;;15.05;10.98;;;5.80;99.90;;;;;;5034988;28;20792;-73
2023/12/16 03:35:12;;;;;;;17.88;12.00;;;5.80;99.90;;;;;;5043477;28;20705;-74
2023/12/16 03:38:00;;;;;;;15.85;11.98;;;5.90;99.90;;;;;;5036190;28;20248;-73
2023/12/16 03:40:45;;;;;;;17.80;11.70;;;5.90;99.90;;;;;;5031293;28;20206;-73
2023/12/16 03:43:31;;;;;;;16.52;12.50;;;5.80;99.90;;;;;;5037061;28;20202;-72
2023/12/16 03:46:18;;;;;;;18.27;12.50;;;5.70;99.90;;;;;;5043452;28;20226;-72
2023/12/16 03:49:03;;;;;;;14.82;12.15;;;5.80;99.90;;;;;;5037064;28;20454;-72
2023/12/16 03:51:49;;;;;;;19.65;12.85;;;5.80;99.90;;;;;;5036864;28;20637;-73
2023/12/16 03:54:35;;;;;;;17.58;12.38;;;5.70;99.90;;;;;;5030098;28;20288;-73
2023/12/16 03:57:21;;;;;;;15.70;11.73;;;5.80;99.90;;;;;;5035000;28;20213;-73
2023/12/16 04:00:09;;;;;;;15.32;13.05;;;5.60;99.90;;;;;;5036246;28;20230;-73
2023/12/16 04:02:56;;;;;;;17.48;12.50;;;5.60;99.90;;;;;;5033200;28;20215;-73
2023/12/16 04:05:43;;;;;;;16.85;12.75;;;5.60;99.90;;;;;;5036757;28;20225;-73
2023/12/16 04:08:28;;;;;;;17.48;12.23;;;5.60;99.90;;;;;;5046733;28;20214;-73
2023/12/16 04:11:14;;;;;;;17.85;12.93;;;5.60;99.90;;;;;;5037880;28;20212;-73
2023/12/16 04:14:00;;;;;;;20.13;13.20;;;5.60;99.90;;;;;;5036877;28;20210;-73
2023/12/16 04:16:46;;;;;;;19.60;12.68;;;5.60;99.90;;;;;;5031604;28;20445;-75
2023/12/16 04:19:33;;;;;;;16.35;12.80;;;5.50;99.90;;;;;;5035097;28;20302;-75
2023/12/16 04:22:19;;;;;;;18.65;12.90;;;5.50;99.90;;;;;;5044009;28;20573;-74
2023/12/16 04:25:10;;;;;;;17.73;13.73;;;5.50;99.90;;;;;;5041786;28;20231;-75
2023/12/16 04:27:55;;;;;;;21.70;15.20;;;5.30;99.90;;;;;;5037163;28;20211;-75
2023/12/16 04:30:41;;;;;;;21.27;13.38;;;5.40;99.90;;;;;;5040853;28;20221;-73
2023/12/16 04:33:26;;;;;;;19.80;13.27;;;5.40;99.90;;;;;;5046272;28;20206;-74
2023/12/16 04:36:15;;;;;;;19.95;12.85;;;5.50;99.90;;;;;;5045312;28;20202;-72
2023/12/16 04:39:00;;;;;;;19.88;13.43;;;5.60;99.90;;;;;;5041203;28;20250;-72
2023/12/16 04:41:46;;;;;;;21.58;13.70;;;5.60;99.90;;;;;;5043617;28;20599;-72
2023/12/16 04:44:32;;;;;;;29.83;13.73;;;5.40;99.90;;;;;;5044218;28;20210;-72
2023/12/16 04:47:17;;;;;;;19.52;12.55;;;5.50;99.90;;;;;;5039602;28;20210;-72
2023/12/16 04:50:04;;;;;;;15.95;11.80;;;5.50;99.90;;;;;;5052147;28;20226;-72
2023/12/16 04:52:51;;;;;;;15.07;11.88;;;5.40;99.90;;;;;;5033052;28;20207;-73
2023/12/16 04:55:36;;;;;;;26.15;14.93;;;5.20;99.90;;;;;;5053606;28;20788;-72
2023/12/16 04:58:22;;;;;;;35.58;14.55;;;5.20;99.90;;;;;;5042843;28;20340;-75
2023/12/16 05:01:08;;;;;;;19.83;13.65;;;5.20;99.90;;;;;;5041876;28;20697;-75
2023/12/16 05:03:54;;;;;;;17.40;13.35;;;5.20;99.90;;;;;;5036824;28;20201;-73
2023/12/16 05:06:39;;;;;;;23.13;14.25;;;5.20;99.90;;;;;;5034668;28;20225;-73
2023/12/16 05:09:26;;;;;;;17.00;14.05;;;5.10;99.90;;;;;;5036497;28;20318;-73
2023/12/16 05:12:12;;;;;;;18.08;13.02;;;5.10;99.90;;;;;;5042508;28;20496;-73
2023/12/16 05:14:58;;;;;;;20.55;14.23;;;5.30;99.90;;;;;;5040597;28;20583;-74
2023/12/16 05:17:43;;;;;;;18.52;12.95;;;5.30;99.90;;;;;;5035029;28;20203;-73
2023/12/16 05:20:29;;;;;;;18.05;12.93;;;5.30;99.90;;;;;;5043258;28;20300;-73
2023/12/16 05:23:15;;;;;;;20.90;13.95;;;5.40;99.90;;;;;;5047542;28;20292;-73
2023/12/16 05:26:02;;;;;;;19.95;14.68;;;5.50;99.90;;;;;;5040336;28;20229;-73
2023/12/16 05:28:47;;;;;;;18.67;12.80;;;5.40;99.90;;;;;;5040212;28;20225;-73
2023/12/16 05:31:33;;;;;;;23.02;14.55;;;5.40;99.90;;;;;;5039941;28;20287;-73
2023/12/16 05:34:19;;;;;;;20.88;13.90;;;5.40;99.90;;;;;;5043384;28;20205;-73
2023/12/16 05:37:05;;;;;;;20.33;12.83;;;5.40;99.90;;;;;;5045823;28;20277;-73
2023/12/16 05:39:53;;;;;;;18.85;12.63;;;5.40;99.90;;;;;;5035841;28;20452;-73
2023/12/16 05:42:40;;;;;;;17.77;13.68;;;5.40;99.90;;;;;;5044087;28;20217;-74
2023/12/16 05:45:26;;;;;;;18.27;13.38;;;5.40;99.90;;;;;;5047596;28;20773;-72
2023/12/16 05:48:12;;;;;;;17.85;12.90;;;5.40;99.90;;;;;;5047673;28;20236;-72
2023/12/16 05:50:57;;;;;;;18.73;12.43;;;5.40;99.90;;;;;;5036142;28;20316;-71
2023/12/16 05:53:43;;;;;;;15.73;12.53;;;5.30;99.90;;;;;;5032005;28;20427;-72
2023/12/16 05:56:29;;;;;;;29.90;13.70;;;5.30;99.90;;;;;;5050761;28;20535;-72
2023/12/16 05:59:16;;;;;;;19.00;12.98;;;5.20;99.90;;;;;;5039026;28;20606;-73
2023/12/16 06:02:01;;;;;;;21.55;14.45;;;5.20;99.90;;;;;;5043576;28;20212;-73
2023/12/16 06:04:47;;;;;;;18.83;12.50;;;5.40;99.90;;;;;;5039736;28;20201;-74
2023/12/16 06:07:32;;;;;;;20.25;12.88;;;5.40;99.90;;;;;;5035728;28;20430;-73
2023/12/16 06:10:18;;;;;;;27.42;13.70;;;5.30;99.90;;;;;;5044274;28;20229;-72
2023/12/16 06:13:04;;;;;;;24.95;14.68;;;5.30;99.90;;;;;;5042751;28;20205;-73
2023/12/16 06:15:51;;;;;;;31.90;15.13;;;5.30;99.90;;;;;;5035843;28;20201;-72
2023/12/16 06:18:37;;;;;;;21.85;15.57;;;5.30;99.90;;;;;;5038500;28;20287;-73
2023/12/16 06:21:22;;;;;;;43.38;14.85;;;5.30;99.90;;;;;;5061540;22;20228;-73
2023/12/16 06:24:10;;;;;;;33.50;16.73;;;5.30;99.90;;;;;;5047159;28;20327;-73
2023/12/16 06:26:56;;;;;;;30.17;17.60;;;5.20;99.90;;;;;;5036997;28;20227;-73
2023/12/16 06:29:41;;;;;;;49.47;16.92;;;5.20;99.90;;;;;;5036085;28;20299;-73
2023/12/16 06:32:29;;;;;;;22.30;16.25;;;5.20;99.90;;;;;;5018454;28;20226;-73
2023/12/16 06:35:14;;;;;;;29.15;18.55;;;5.30;99.90;;;;;;5018415;28;20206;-73
2023/12/16 06:38:00;;;;;;;26.95;17.08;;;5.30;99.90;;;;;;5022878;28;20214;-74
2023/12/16 06:40:46;;;;;;;24.67;15.60;;;5.30;99.90;;;;;;5010579;28;20754;-73
2023/12/16 06:43:31;;;;;;;24.73;15.60;;;5.30;99.90;;;;;;5021803;28;20209;-74
2023/12/16 06:46:19;;;;;;;31.25;15.02;;;5.30;99.90;;;;;;5022024;28;20231;-73
2023/12/16 06:49:06;;;;;;;20.88;14.93;;;5.20;99.90;;;;;;5015306;28;20218;-73
2023/12/16 06:51:52;;;;;;;23.42;16.98;;;5.30;99.90;;;;;;5008522;28;20362;-73
2023/12/16 06:54:37;;;;;;;20.38;13.90;;;5.40;99.90;;;;;;5018224;28;20210;-73
2023/12/16 06:57:23;;;;;;;34.13;15.73;;;5.40;99.90;;;;;;5020998;28;20306;-73
2023/12/16 07:00:10;;;;;;;23.48;15.05;;;5.50;99.90;;;;;;5021766;28;20212;-73
2023/12/16 07:02:56;;;;;;;20.83;14.60;;;5.50;99.90;;;;;;5017674;28;20208;-73
2023/12/16 07:05:43;;;;;;;18.83;13.88;;;5.50;99.90;;;;;;5007966;28;20231;-73
2023/12/16 07:08:28;;;;;;;28.48;15.80;;;5.50;99.90;;;;;;5011125;28;20261;-73
2023/12/16 07:11:14;;;;;;;21.05;15.05;;;5.40;99.90;;;;;;5022399;28;20269;-73
2023/12/16 07:14:00;;;;;;;19.53;14.23;;;5.40;99.90;;;;;;5021430;28;20206;-73
2023/12/16 07:16:46;;;;;;;19.25;14.30;;;5.50;99.90;;;;;;5015290;28;20497;-73
2023/12/16 07:19:34;;;;;;;15.48;13.07;;;5.40;99.90;;;;;;5011201;28;20211;-74
2023/12/16 07:22:21;;;;;;;18.00;14.70;;;5.40;99.90;;;;;;5011917;28;20242;-73
2023/12/16 07:25:08;;;;;;;19.40;13.98;;;5.50;99.90;;;;;;5015394;28;20698;-74
2023/12/16 07:27:54;;;;;;;18.67;13.20;;;5.40;99.90;;;;;;5016696;28;20275;-73
2023/12/16 07:30:40;;;;;;;16.00;13.18;;;5.40;99.90;;;;;;5012971;28;20223;-74
2023/12/16 07:33:25;;;;;;;25.60;15.18;;;5.40;99.90;;;;;;5017167;28;20218;-73
2023/12/16 07:36:12;;;;;;;19.80;14.20;;;5.30;99.90;;;;;;5026783;28;20218;-74
2023/12/16 07:38:59;;;;;;;18.48;13.75;;;5.30;99.90;;;;;;5013375;28;20430;-73
2023/12/16 07:41:44;;;;;;;25.20;17.15;;;5.50;99.90;;;;;;5013835;28;20246;-73
2023/12/16 07:44:30;;;;;;;30.40;21.33;;;5.50;99.90;;;;;;5023315;28;20203;-73
2023/12/16 07:47:16;;;;;;;22.00;16.40;;;5.60;99.90;;;;;;5018301;28;20239;-73
2023/12/16 07:50:02;;;;;;;26.17;18.03;;;5.60;99.90;;;;;;5014884;28;20260;-73
2023/12/16 07:52:48;;;;;;;27.60;18.50;;;5.60;99.90;;;;;;5027168;28;20428;-73
2023/12/16 07:55:35;;;;;;;29.45;17.83;;;5.60;99.90;;;;;;5016208;28;20931;-74
2023/12/16 07:58:20;;;;;;;28.00;19.10;;;5.50;99.90;;;;;;5013864;28;20286;-73
2023/12/16 08:01:06;;;;;;;45.83;20.38;;;5.50;99.90;;;;;;5027578;28;20449;-73
2023/12/16 08:03:52;;;;;;;30.75;21.02;;;5.40;99.90;;;;;;5012501;28;20210;-73
2023/12/16 08:06:38;;;;;;;31.45;21.50;;;5.40;99.90;;;;;;5018484;28;20380;-74
2023/12/16 08:09:24;;;;;;;35.03;21.52;;;5.50;99.90;;;;;;5022690;28;20258;-74
2023/12/16 08:12:11;;;;;;;31.83;22.73;;;5.50;99.90;;;;;;5019343;28;20232;-73
2023/12/16 08:14:56;;;;;;;34.78;23.98;;;5.60;99.90;;;;;;5013841;28;20290;-73
2023/12/16 08:17:42;;;;;;;41.63;22.70;;;5.70;99.90;;;;;;5015838;28;20707;-73
2023/12/16 08:20:28;;;;;;;36.47;22.70;;;5.70;99.90;;;;;;5013266;28;20237;-73
2023/12/16 08:23:13;;;;;;;75.47;41.47;;;5.60;99.90;;;;;;5026318;28;20209;-73
2023/12/16 08:25:59;;;;;;;64.43;31.00;;;5.50;99.90;;;;;;5016037;28;20303;-73
2023/12/16 08:28:46;;;;;;;112.70;45.85;;;5.50;99.90;;;;;;5020796;28;20438;-73
2023/12/16 08:31:32;;;;;;;90.53;46.97;;;5.40;99.90;;;;;;5018830;28;20223;-73
2023/12/16 08:34:17;;;;;;;49.88;30.00;;;5.40;99.90;;;;;;5017240;28;20214;-74
2023/12/16 08:37:03;;;;;;;58.30;30.63;;;5.40;99.90;;;;;;5031154;28;20208;-73
2023/12/16 08:39:49;;;;;;;52.90;29.63;;;5.50;99.90;;;;;;5016259;28;20334;-73
2023/12/16 08:42:35;;;;;;;33.03;21.23;;;5.60;99.90;;;;;;5010319;28;20748;-74
2023/12/16 08:45:22;;;;;;;25.50;16.75;;;5.70;99.90;;;;;;5023446;28;20898;-73
2023/12/16 08:48:07;;;;;;;29.27;18.00;;;5.70;99.90;;;;;;5014911;28;20262;-74
2023/12/16 08:50:53;;;;;;;27.92;18.02;;;5.80;99.90;;;;;;5008962;28;20260;-74
2023/12/16 08:53:39;;;;;;;22.17;17.35;;;5.90;99.90;;;;;;5029838;28;20206;-73
2023/12/16 08:56:24;;;;;;;25.50;17.53;;;6.10;99.90;;;;;;5016218;28;20265;-73
2023/12/16 08:59:10;;;;;;;21.63;16.43;;;6.10;99.90;;;;;;5019282;28;20451;-74
2023/12/16 09:01:58;;;;;;;21.60;16.73;;;6.10;99.90;;;;;;5017984;28;20457;-73
2023/12/16 09:04:43;;;;;;;22.65;15.35;;;6.10;99.90;;;;;;5021579;28;20331;-73
2023/12/16 09:07:29;;;;;;;22.50;16.90;;;6.10;99.90;;;;;;5011410;28;20273;-74
2023/12/16 09:10:15;;;;;;;33.65;21.90;;;6.20;99.90;;;;;;5027284;28;20430;-73
2023/12/16 09:13:00;;;;;;;26.40;20.08;;;6.20;99.90;;;;;;5022494;28;20229;-73
2023/12/16 09:15:46;;;;;;;39.22;30.55;;;6.20;99.90;;;;;;5021471;28;20211;-73
2023/12/16 09:18:33;;;;;;;35.47;26.53;;;6.20;99.90;;;;;;5017218;28;20247;-74
2023/12/16 09:21:19;;;;;;;29.43;22.60;;;6.30;99.90;;;;;;5019899;28;20497;-74
2023/12/16 09:24:05;;;;;;;27.98;20.40;;;6.30;99.90;;;;;;5016612;28;20575;-72
2023/12/16 09:26:51;;;;;;;25.80;20.47;;;6.30;99.90;;;;;;5017192;28;20228;-73
2023/12/16 09:29:36;;;;;;;23.27;16.20;;;6.30;99.90;;;;;;5019430;28;20426;-72
2023/12/16 09:32:22;;;;;;;25.75;18.75;;;6.40;99.90;;;;;;5023670;28;20464;-72
2023/12/16 09:35:10;;;;;;;22.20;18.10;;;6.40;99.90;;;;;;5024496;28;20341;-72
2023/12/16 09:37:55;;;;;;;22.77;17.88;;;6.30;99.90;;;;;;5024089;28;20216;-72
2023/12/16 09:40:41;;;;;;;21.88;16.92;;;6.40;99.90;;;;;;5015829;28;20223;-72
2023/12/16 09:43:30;;;;;;;21.02;16.40;;;6.40;99.90;;;;;;5024027;28;20266;-73
2023/12/16 09:46:16;;;;;;;20.05;15.80;;;6.50;99.90;;;;;;5026425;28;20342;-74
2023/12/16 09:49:01;;;;;;;25.50;15.48;;;6.60;99.90;;;;;;5016506;28;20677;-74
2023/12/16 09:51:48;;;;;;;26.43;18.13;;;6.60;99.90;;;;;;5018533;28;20229;-74
2023/12/16 09:54:34;;;;;;;24.13;18.23;;;6.70;99.90;;;;;;5022039;28;20999;-74
2023/12/16 09:57:22;;;;;;;22.80;17.40;;;6.70;99.90;;;;;;5009836;28;20202;-74
2023/12/16 10:00:09;;;;;;;32.47;17.50;;;6.70;99.90;;;;;;5018670;28;20405;-73
2023/12/16 10:02:57;;;;;;;21.47;14.87;;;6.80;99.90;;;;;;5026619;28;20545;-74
2023/12/16 10:05:44;;;;;;;21.42;15.35;;;6.90;99.90;;;;;;5023313;28;20434;-73
2023/12/16 10:08:31;;;;;;;21.30;14.80;;;6.90;99.90;;;;;;5028397;28;20204;-73
2023/12/16 10:11:17;;;;;;;18.60;13.88;;;6.90;99.90;;;;;;5029050;28;20294;-73
2023/12/16 10:14:03;;;;;;;19.40;12.60;;;6.90;99.90;;;;;;5022386;28;20686;-73
2023/12/16 10:16:50;;;;;;;16.00;12.48;;;7.00;99.90;;;;;;5023582;28;20425;-74
2023/12/16 10:19:36;;;;;;;18.87;11.73;;;7.10;99.90;;;;;;5024480;28;20313;-74
2023/12/16 10:22:22;;;;;;;17.20;13.23;;;7.20;99.90;;;;;;5020729;28;20462;-74
2023/12/16 10:25:11;;;;;;;17.83;12.07;;;7.20;99.90;;;;;;5018667;28;20966;-74
2023/12/16 10:28:00;;;;;;;20.70;13.87;;;7.30;99.90;;;;;;5023572;28;21015;-74
2023/12/16 10:30:46;;;;;;;18.92;15.07;;;7.40;99.90;;;;;;5026708;28;20479;-74
2023/12/16 10:33:31;;;;;;;20.50;13.13;;;7.50;99.90;;;;;;5028480;28;20208;-74
2023/12/16 10:36:18;;;;;;;22.50;14.73;;;7.50;99.90;;;;;;5013236;28;20218;-74
2023/12/16 10:39:04;;;;;;;20.40;15.03;;;7.60;99.90;;;;;;5023093;28;20427;-74
2023/12/16 10:41:51;;;;;;;21.17;15.33;;;7.70;99.90;;;;;;5021269;28;20581;-74
2023/12/16 10:44:36;;;;;;;21.60;15.33;;;7.80;99.90;;;;;;5014699;28;20434;-74
2023/12/16 10:47:27;;;;;;;16.30;12.63;;;7.90;99.90;;;;;;5019299;28;20596;-74
2023/12/16 10:50:15;;;;;;;17.63;14.27;;;7.90;99.90;;;;;;5017716;28;20511;-74
2023/12/16 10:53:03;;;;;;;18.83;14.30;;;8.00;99.90;;;;;;5011522;28;20970;-72
2023/12/16 10:55:55;;;;;;;19.63;13.87;;;8.00;99.90;;;;;;5012318;28;20534;-74
2023/12/16 10:58:47;;;;;;;26.67;13.60;;;8.00;99.90;;;;;;5011672;28;20508;-74
2023/12/16 11:01:35;;;;;;;21.70;14.40;;;8.10;99.90;;;;;;5022134;28;20534;-74
2023/12/16 11:04:25;;;;;;;19.77;13.80;;;8.10;99.90;;;;;;5016058;28;20494;-74
2023/12/16 11:07:11;;;;;;;21.00;15.23;;;8.20;99.90;;;;;;5000944;28;20458;-75
2023/12/16 11:09:57;;;;;;;19.57;13.83;;;8.20;99.90;;;;;;5007586;28;20444;-75
2023/12/16 11:12:43;;;;;;;24.17;14.60;;;8.20;99.90;;;;;;5023182;28;20510;-75
2023/12/16 11:15:31;;;;;;;25.17;15.10;;;8.30;99.90;;;;;;5020248;28;20448;-75
2023/12/16 11:18:21;;;;;;;18.60;14.20;;;8.40;99.90;;;;;;5010893;28;20505;-74
2023/12/16 11:21:12;;;;;;;18.97;14.63;;;8.50;99.90;;;;;;5016816;28;20468;-74
2023/12/16 11:24:01;;;;;;;23.67;13.30;;;8.50;99.90;;;;;;5013017;28;20397;-75
2023/12/16 11:26:51;;;;;;;19.13;13.87;;;8.50;99.90;;;;;;5021138;28;20535;-75
2023/12/16 11:29:37;;;;;;;23.40;13.30;;;8.50;99.90;;;;;;5019728;28;20442;-75
2023/12/16 11:32:24;;;;;;;16.33;10.33;;;8.60;99.90;;;;;;5018416;28;20447;-75
2023/12/16 11:35:10;;;;;;;20.17;11.63;;;8.50;99.90;;;;;;5016745;28;20433;-76
2023/12/16 11:37:56;;;;;;;16.80;10.40;;;8.50;99.90;;;;;;5017309;28;20447;-76
2023/12/16 11:40:42;;;;;;;22.13;12.63;;;8.60;99.90;;;;;;5005999;28;20668;-76
2023/12/16 11:43:47;;;;;;;17.83;11.03;;;8.60;99.90;;;;;;5025825;28;20431;-76
2023/12/16 14:30:11;;;;;;;21.23;9.20;;;7.60;99.90;;;;;;5114825;27;20555;-71
2023/12/16 14:32:56;;;;;;;12.20;7.13;;;7.50;99.90;;;;;;5095413;28;20587;-71
2023/12/16 14:35:42;;;;;;;18.23;7.13;;;7.50;99.90;;;;;;5093770;28;20436;-71
2023/12/16 14:38:27;;;;;;;15.63;7.35;;;7.50;99.90;;;;;;5096767;28;20443;-72
2023/12/16 14:41:13;;;;;;;12.60;6.80;;;7.50;99.90;;;;;;5099507;28;20629;-72
2023/12/16 14:43:58;;;;;;;17.10;7.63;;;7.50;99.90;;;;;;5095907;28;20435;-72
2023/12/16 14:46:47;;;;;;;18.00;7.43;;;7.40;99.90;;;;;;5088279;28;20938;-71
2023/12/16 14:49:33;;;;;;;13.00;6.93;;;7.30;99.90;;;;;;5077781;28;20483;-72
2023/12/16 14:52:18;;;;;;;11.13;6.70;;;7.30;99.90;;;;;;5086169;28;21045;-72
2023/12/16 14:55:05;;;;;;;17.00;6.80;;;7.20;99.90;;;;;;5085574;28;20433;-72
2023/12/16 14:57:51;;;;;;;13.23;6.57;;;7.20;99.90;;;;;;5093277;28;20532;-71
2023/12/16 15:00:37;;;;;;;10.50;6.00;;;7.10;99.90;;;;;;5098594;28;20563;-71
2023/12/16 15:03:24;;;;;;;13.00;5.90;;;7.00;99.90;;;;;;5083670;28;20549;-71
2023/12/16 15:06:09;;;;;;;16.47;7.33;;;6.90;99.90;;;;;;5095589;28;20435;-73
2023/12/16 15:08:55;;;;;;;11.40;5.95;;;6.90;99.90;;;;;;5096588;28;20473;-71
2023/12/16 15:11:41;;;;;;;12.17;5.73;;;6.80;99.90;;;;;;5104954;28;20238;-71
2023/12/16 15:14:27;;;;;;;11.37;5.53;;;6.80;99.90;;;;;;5081293;28;20958;-72
2023/12/16 15:17:13;;;;;;;23.42;6.47;;;6.60;99.90;;;;;;5083974;28;20791;-71
2023/12/16 15:20:00;;;;;;;19.53;6.53;;;6.50;99.90;;;;;;5090811;28;20213;-71
2023/12/16 15:22:46;;;;;;;9.63;5.17;;;6.50;99.90;;;;;;5077025;28;20436;-71
2023/12/16 15:25:31;;;;;;;9.90;4.65;;;6.40;99.90;;;;;;5086787;28;20484;-72
2023/12/16 15:28:17;;;;;;;10.73;4.27;;;6.40;99.90;;;;;;5096587;28;20302;-71
2023/12/16 15:31:03;;;;;;;6.43;3.67;;;6.30;99.90;;;;;;5080930;28;20835;-73
2023/12/16 15:33:48;;;;;;;8.90;3.73;;;6.20;99.90;;;;;;5090938;28;20490;-71
2023/12/16 15:36:35;;;;;;;12.90;4.03;;;6.00;99.90;;;;;;5087483;28;20798;-71
2023/12/16 15:39:20;;;;;;;15.65;3.28;;;6.00;99.90;;;;;;5077220;28;20259;-71
2023/12/16 15:42:06;;;;;;;8.73;3.80;;;5.90;99.90;;;;;;5087640;28;20232;-71
2023/12/16 15:44:52;;;;;;;13.03;4.20;;;5.80;99.90;;;;;;5079389;28;20444;-72
2023/12/16 15:47:38;;;;;;;11.27;4.00;;;5.70;99.90;;;;;;5090973;28;20808;-71
2023/12/16 15:50:23;;;;;;;6.50;3.00;;;5.60;99.90;;;;;;5073991;28;20952;-71
2023/12/16 15:53:10;;;;;;;8.10;3.30;;;5.60;99.90;;;;;;5089446;28;20432;-73
2023/12/16 15:55:56;;;;;;;9.70;3.50;;;5.50;99.90;;;;;;5064426;28;20672;-71
2023/12/16 15:58:41;;;;;;;8.40;3.70;;;5.40;99.90;;;;;;5071649;28;20470;-72
2023/12/16 16:01:27;;;;;;;6.28;3.45;;;5.30;99.90;;;;;;5066519;28;20241;-71
2023/12/16 16:04:13;;;;;;;10.30;4.13;;;5.30;99.90;;;;;;5077427;28;20217;-72
2023/12/16 16:06:59;;;;;;;5.50;3.30;;;5.20;99.90;;;;;;5073027;28;20788;-72
2023/12/16 16:09:46;;;;;;;7.33;3.27;;;5.10;99.90;;;;;;5078426;28;20451;-71
2023/12/16 16:12:31;;;;;;;5.95;3.63;;;5.10;99.90;;;;;;5063097;28;20459;-71
2023/12/16 16:15:17;;;;;;;9.37;3.07;;;5.00;99.90;;;;;;5080344;28;20283;-71
2023/12/16 16:18:03;;;;;;;6.28;3.00;;;5.00;99.90;;;;;;5073607;28;20415;-71
2023/12/16 16:20:49;;;;;;;14.88;4.03;;;4.90;99.90;;;;;;5081368;28;20234;-72
2023/12/16 16:23:34;;;;;;;10.43;3.13;;;4.90;99.90;;;;;;5065508;28;20201;-71
2023/12/16 16:26:25;;;;;;;7.43;3.45;;;4.80;99.90;;;;;;5067880;28;20431;-74
2023/12/16 16:29:11;;;;;;;8.65;3.30;;;4.80;99.90;;;;;;5059501;28;20245;-72
2023/12/16 16:31:56;;;;;;;6.60;3.22;;;4.60;99.90;;;;;;5065916;28;20229;-75
2023/12/16 16:34:42;;;;;;;5.15;3.75;;;4.70;99.90;;;;;;5074532;28;20192;-72
2023/12/16 16:37:28;;;;;;;7.00;3.42;;;4.60;99.90;;;;;;5055569;28;20207;-71
2023/12/16 16:40:13;;;;;;;16.85;3.35;;;4.50;99.90;;;;;;5088413;28;20693;-71
2023/12/16 16:43:00;;;;;;;10.50;3.38;;;4.50;99.90;;;;;;5076234;28;20692;-71
2023/12/16 16:45:46;;;;;;;9.55;3.83;;;4.40;99.90;;;;;;5064833;28;20204;-71
2023/12/16 16:48:33;;;;;;;9.52;3.75;;;4.50;99.90;;;;;;5078438;28;20207;-73
2023/12/16 16:51:19;;;;;;;8.68;2.80;;;4.40;99.90;;;;;;5068055;28;20224;-73
2023/12/16 16:54:05;;;;;;;7.78;3.67;;;4.40;99.90;;;;;;5071383;28;20213;-71
2023/12/16 16:56:51;;;;;;;9.10;3.53;;;4.40;99.90;;;;;;5079575;28;20364;-71
2023/12/16 16:59:39;;;;;;;9.15;2.95;;;4.40;99.90;;;;;;5075190;28;20210;-71
2023/12/16 17:02:25;;;;;;;4.45;2.78;;;4.30;99.90;;;;;;5060267;28;20331;-72